createdAt,value
2018-04-18T00:01:30.691Z,100568.33
2018-04-18T00:03:58.266Z,100577.38
2018-04-18T00:06:25.826Z,100576.13
2018-04-18T00:08:53.351Z,100574.58
2018-04-18T00:11:20.932Z,100572.42
2018-04-18T00:13:48.583Z,100570.13
2018-04-18T00:16:16.147Z,100573.52
2018-04-18T00:18:43.690Z,100573.66
2018-04-18T00:21:11.237Z,100571.98
2018-04-18T00:23:38.821Z,100567.27
2018-04-18T00:26:06.389Z,100571.57
2018-04-18T00:28:33.916Z,100573.91
2018-04-18T00:31:01.499Z,100572.42
2018-04-18T00:33:29.062Z,100574.82
2018-04-18T00:35:56.727Z,100583.34
2018-04-18T00:38:24.280Z,100584.83
2018-04-18T00:40:51.797Z,100586.73
2018-04-18T00:43:19.457Z,100580.97
2018-04-18T00:45:47.062Z,100573.67
2018-04-18T00:48:14.637Z,100582.13
2018-04-18T00:50:42.291Z,100583.40
2018-04-18T00:53:09.843Z,100581.24
2018-04-18T00:55:37.405Z,100588.12
2018-04-18T00:58:04.997Z,100588.36
2018-04-18T01:00:35.011Z,100576.41
2018-04-18T01:03:03.254Z,100587.82
2018-04-18T01:05:30.806Z,100590.45
2018-04-18T01:07:58.385Z,100585.78
2018-04-18T01:10:25.912Z,100585.48
2018-04-18T01:12:53.506Z,100586.50
2018-04-18T01:15:21.038Z,100590.14
2018-04-18T01:17:48.611Z,100586.62
2018-04-18T01:20:16.142Z,100586.20
2018-04-18T01:22:43.669Z,100586.63
2018-04-18T01:25:11.238Z,100587.73
2018-04-18T01:27:38.771Z,100590.64
2018-04-18T01:30:06.421Z,100587.27
2018-04-18T01:32:33.980Z,100587.55
2018-04-18T01:35:01.549Z,100586.48
2018-04-18T01:37:29.082Z,100585.24
2018-04-18T01:39:56.635Z,100588.14
2018-04-18T01:42:24.161Z,100582.17
2018-04-18T01:44:51.738Z,100588.92
2018-04-18T01:47:19.330Z,100585.87
2018-04-18T01:49:46.996Z,100586.08
2018-04-18T01:52:14.552Z,100594.96
2018-04-18T01:54:42.074Z,100585.53
2018-04-18T01:57:09.625Z,100590.78
2018-04-18T01:59:37.152Z,100586.60
2018-04-18T02:02:04.706Z,100589.37
2018-04-18T02:04:32.260Z,100591.91
2018-04-18T02:06:59.810Z,100594.14
2018-04-18T02:09:27.339Z,100602.95
2018-04-18T02:11:54.885Z,100602.39
2018-04-18T02:14:22.416Z,100601.06
2018-04-18T02:16:49.967Z,100603.23
2018-04-18T02:19:17.538Z,100610.72
2018-04-18T02:21:45.168Z,100605.12
2018-04-18T02:24:12.700Z,100606.33
2018-04-18T02:26:40.279Z,100605.53
2018-04-18T02:29:07.830Z,100604.91
2018-04-18T02:31:35.380Z,100608.15
2018-04-18T02:34:02.984Z,100604.64
2018-04-18T02:36:30.536Z,100606.53
2018-04-18T02:38:58.088Z,100601.86
2018-04-18T02:41:25.640Z,100605.40
2018-04-18T02:43:53.298Z,100605.11
2018-04-18T02:46:20.817Z,100603.27
2018-04-18T02:48:48.369Z,100599.50
2018-04-18T02:51:15.976Z,100604.48
2018-04-18T02:53:43.549Z,100599.45
2018-04-18T02:56:11.078Z,100605.31
2018-04-18T02:58:38.653Z,100606.47
2018-04-18T03:01:06.214Z,100611.93
2018-04-18T03:03:34.558Z,100612.41
2018-04-18T03:06:02.144Z,100612.11
2018-04-18T03:08:29.687Z,100604.14
2018-04-18T03:10:57.271Z,100611.18
2018-04-18T03:13:24.830Z,100606.97
2018-04-18T03:15:52.393Z,100612.30
2018-04-18T03:18:19.918Z,100613.20
2018-04-18T03:20:47.501Z,100611.34
2018-04-18T03:23:15.026Z,100609.33
2018-04-18T03:25:42.597Z,100604.16
2018-04-18T03:28:10.133Z,100604.30
2018-04-18T03:30:37.714Z,100609.89
2018-04-18T03:33:05.289Z,100605.94
2018-04-18T03:35:32.801Z,100612.05
2018-04-18T03:38:00.441Z,100609.70
2018-04-18T03:40:27.965Z,100611.39
2018-04-18T03:42:55.677Z,100612.36
2018-04-18T03:45:23.197Z,100610.88
2018-04-18T03:47:50.746Z,100608.83
2018-04-18T03:50:18.277Z,100611.12
2018-04-18T03:52:45.900Z,100611.02
2018-04-18T03:55:13.456Z,100608.97
2018-04-18T03:57:41.110Z,100612.42
2018-04-18T04:00:08.633Z,100614.62
2018-04-18T04:02:37.238Z,100614.67
2018-04-18T04:05:04.790Z,100619.38
2018-04-18T04:07:32.370Z,100619.44
2018-04-18T04:09:59.935Z,100619.44
2018-04-18T04:12:27.454Z,100623.91
2018-04-18T04:14:55.026Z,100623.16
2018-04-18T04:17:34.455Z,100624.72
2018-04-18T04:20:13.879Z,100623.94
2018-04-18T04:22:53.340Z,100627.02
2018-04-18T04:25:20.929Z,100623.14
2018-04-18T04:27:48.486Z,100632.63
2018-04-18T04:30:16.941Z,100632.54
2018-04-18T04:32:44.521Z,100632.56
2018-04-18T04:35:12.094Z,100636.00
2018-04-18T04:37:39.613Z,100632.63
2018-04-18T04:40:07.756Z,100625.19
2018-04-18T04:42:35.377Z,100635.75
2018-04-18T04:45:02.959Z,100635.00
2018-04-18T04:47:30.606Z,100630.85
2018-04-18T04:49:58.164Z,100638.46
2018-04-18T04:52:25.820Z,100639.48
2018-04-18T04:54:53.363Z,100635.84
2018-04-18T04:57:20.918Z,100645.47
2018-04-18T04:59:48.466Z,100638.64
2018-04-18T05:02:16.058Z,100647.36
2018-04-18T05:04:43.621Z,100648.73
2018-04-18T05:07:11.872Z,100654.00
2018-04-18T05:09:40.990Z,100650.37
2018-04-18T05:12:08.831Z,100650.50
2018-04-18T05:14:37.756Z,100657.20
2018-04-18T05:17:07.699Z,100655.39
2018-04-18T05:19:38.134Z,100660.44
2018-04-18T05:22:09.654Z,100667.83
2018-04-18T05:24:40.539Z,100661.89
2018-04-18T05:27:11.730Z,100660.83
2018-04-18T05:29:42.046Z,100667.80
2018-04-18T05:32:10.017Z,100673.77
2018-04-18T05:34:37.989Z,100666.39
2018-04-18T05:37:06.405Z,100680.70
2018-04-18T05:39:34.031Z,100681.59
2018-04-18T05:42:02.069Z,100682.66
2018-04-18T05:44:30.275Z,100689.09
2018-04-18T05:46:57.986Z,100693.36
2018-04-18T05:49:25.514Z,100694.55
2018-04-18T05:51:53.315Z,100687.08
2018-04-18T05:54:21.193Z,100692.27
2018-04-18T05:56:51.820Z,100687.78
2018-04-18T05:59:19.466Z,100682.90
2018-04-18T06:01:47.024Z,100684.52
2018-04-18T06:04:14.577Z,100680.02
2018-04-18T06:06:42.200Z,100684.47
2018-04-18T06:09:09.734Z,100686.79
2018-04-18T06:11:38.088Z,100693.34
2018-04-18T06:14:05.666Z,100700.52
2018-04-18T06:16:33.187Z,100698.08
2018-04-18T06:19:00.745Z,100695.05
2018-04-18T06:21:28.270Z,100699.61
2018-04-18T06:23:55.945Z,100703.02
2018-04-18T06:26:23.473Z,100701.50
2018-04-18T06:28:51.055Z,100700.19
2018-04-18T06:31:18.600Z,100703.00
2018-04-18T06:33:46.178Z,100707.80
2018-04-18T06:36:13.709Z,100708.74
2018-04-18T06:38:41.557Z,100706.62
2018-04-18T06:41:09.747Z,100708.63
2018-04-18T06:43:37.331Z,100709.34
2018-04-18T06:46:04.866Z,100710.88
2018-04-18T06:48:32.668Z,100711.72
2018-04-18T06:51:00.320Z,100703.81
2018-04-18T06:53:27.902Z,100704.60
2018-04-18T06:55:55.442Z,100711.08
2018-04-18T06:58:23.005Z,100711.98
2018-04-18T07:00:50.554Z,100701.89
2018-04-18T07:03:18.154Z,100710.94
2018-04-18T07:05:45.766Z,100706.92
2018-04-18T07:08:13.362Z,100712.55
2018-04-18T07:10:40.887Z,100704.19
2018-04-18T07:13:08.441Z,100710.15
2018-04-18T07:15:36.019Z,100709.09
2018-04-18T07:18:03.690Z,100707.22
2018-04-18T07:20:31.221Z,100705.88
2018-04-18T07:22:58.773Z,100714.75
2018-04-18T07:25:26.361Z,100717.98
2018-04-18T07:27:54.026Z,100718.44
2018-04-18T07:30:21.559Z,100717.56
2018-04-18T07:32:49.137Z,100715.59
2018-04-18T07:35:16.712Z,100718.69
2018-04-18T07:37:44.363Z,100723.47
2018-04-18T07:40:12.042Z,100720.51
2018-04-18T07:42:40.408Z,100710.02
2018-04-18T07:45:07.995Z,100720.39
2018-04-18T07:47:35.538Z,100727.17
2018-04-18T07:50:03.178Z,100722.73
2018-04-18T07:52:30.705Z,100729.50
2018-04-18T07:54:58.314Z,100728.57
2018-04-18T07:57:25.832Z,100731.34
2018-04-18T07:59:53.387Z,100740.36
2018-04-18T08:02:20.935Z,100730.47
2018-04-18T08:04:48.490Z,100728.56
2018-04-18T08:07:16.102Z,100730.83
2018-04-18T08:09:43.671Z,100724.29
2018-04-18T08:12:11.650Z,100718.75
2018-04-18T08:14:40.301Z,100734.50
2018-04-18T08:17:09.504Z,100733.38
2018-04-18T08:19:38.500Z,100730.55
2018-04-18T08:22:06.628Z,100733.38
2018-04-18T08:24:34.343Z,100728.30
2018-04-18T08:27:02.461Z,100736.30
2018-04-18T08:29:30.038Z,100732.56
2018-04-18T08:31:57.813Z,100734.69
2018-04-18T08:34:26.095Z,100735.52
2018-04-18T08:36:54.037Z,100730.28
2018-04-18T08:39:22.215Z,100732.13
2018-04-18T08:41:49.969Z,100730.56
2018-04-18T08:44:17.527Z,100727.94
2018-04-18T08:46:45.074Z,100731.45
2018-04-18T08:49:13.604Z,100734.38
2018-04-18T08:51:42.459Z,100735.05
2018-04-18T08:54:11.384Z,100738.40
2018-04-18T08:56:39.083Z,100737.52
2018-04-18T08:59:08.140Z,100735.06
2018-04-18T09:01:36.490Z,100735.61
2018-04-18T09:04:06.539Z,100732.63
2018-04-18T09:06:36.392Z,100733.35
2018-04-18T09:09:03.947Z,100728.16
2018-04-18T09:11:31.600Z,100729.41
2018-04-18T09:13:59.255Z,100735.19
2018-04-18T09:16:26.801Z,100733.44
2018-04-18T09:18:54.334Z,100736.59
2018-04-18T09:21:22.150Z,100737.21
2018-04-18T09:23:49.678Z,100729.03
2018-04-18T09:26:17.262Z,100730.70
2018-04-18T09:28:44.919Z,100738.05
2018-04-18T09:31:12.482Z,100731.55
2018-04-18T09:33:40.069Z,100730.35
2018-04-18T09:36:07.700Z,100727.36
2018-04-18T09:38:35.289Z,100724.50
2018-04-18T09:41:02.827Z,100730.98
2018-04-18T09:43:30.481Z,100724.77
2018-04-18T09:45:58.039Z,100719.92
2018-04-18T09:48:25.679Z,100723.75
2018-04-18T09:50:53.262Z,100723.14
2018-04-18T09:53:20.836Z,100721.94
2018-04-18T09:55:48.455Z,100718.47
2018-04-18T09:58:16.083Z,100722.17
2018-04-18T10:00:51.557Z,100714.89
2018-04-18T10:03:22.621Z,100714.05
2018-04-18T10:05:50.175Z,100721.77
2018-04-18T10:08:19.700Z,100718.47
2018-04-18T10:10:47.602Z,100716.62
2018-04-18T10:13:17.533Z,100709.45
2018-04-18T10:15:45.251Z,100720.45
2018-04-18T10:18:12.787Z,100708.65
2018-04-18T10:20:40.338Z,100717.80
2018-04-18T10:23:10.011Z,100708.37
2018-04-18T10:25:37.988Z,100707.88
2018-04-18T10:28:06.352Z,100713.78
2018-04-18T10:30:34.795Z,100710.78
2018-04-18T10:33:02.650Z,100710.97
2018-04-18T10:35:30.850Z,100702.62
2018-04-18T10:37:59.814Z,100703.92
2018-04-18T10:40:28.859Z,100708.91
2018-04-18T10:42:56.690Z,100703.38
2018-04-18T10:45:26.735Z,100699.00
2018-04-18T10:47:56.478Z,100703.39
2018-04-18T10:50:26.195Z,100700.95
2018-04-18T10:52:55.392Z,100693.84
2018-04-18T10:55:25.819Z,100690.16
2018-04-18T10:57:55.994Z,100686.84
2018-04-18T11:00:25.619Z,100678.83
2018-04-18T11:02:53.654Z,100677.97
2018-04-18T11:05:21.317Z,100680.28
2018-04-18T11:07:49.233Z,100673.74
2018-04-18T11:10:17.412Z,100679.74
2018-04-18T11:12:48.809Z,100678.00
2018-04-18T11:15:16.720Z,100670.09
2018-04-18T11:17:44.263Z,100681.91
2018-04-18T11:20:12.618Z,100675.70
2018-04-18T11:22:40.167Z,100676.13
2018-04-18T11:25:07.730Z,100665.31
2018-04-18T11:27:35.273Z,100663.36
2018-04-18T11:30:02.853Z,100662.92
2018-04-18T11:32:30.521Z,100665.47
2018-04-18T11:34:58.057Z,100654.30
2018-04-18T11:37:25.631Z,100651.30
2018-04-18T11:39:53.169Z,100650.54
2018-04-18T11:42:20.736Z,100654.31
2018-04-18T11:44:48.310Z,100647.19
2018-04-18T11:47:15.973Z,100640.56
2018-04-18T11:49:43.543Z,100648.37
2018-04-18T11:52:11.192Z,100646.70
2018-04-18T11:54:38.752Z,100648.55
2018-04-18T11:57:06.413Z,100649.77
2018-04-18T11:59:34.203Z,100629.88
2018-04-18T12:02:04.724Z,100634.59
2018-04-18T12:04:32.505Z,100638.64
2018-04-18T12:07:01.107Z,100635.43
2018-04-18T12:09:30.185Z,100632.45
2018-04-18T12:11:57.815Z,100630.59
2018-04-18T12:14:27.138Z,100625.69
2018-04-18T12:16:56.853Z,100627.84
2018-04-18T12:19:25.025Z,100629.30
2018-04-18T12:21:52.597Z,100629.97
2018-04-18T12:24:21.941Z,100620.94
2018-04-18T12:26:50.876Z,100622.14
2018-04-18T12:29:18.921Z,100626.89
2018-04-18T12:31:48.053Z,100627.50
2018-04-18T12:34:15.581Z,100627.28
2018-04-18T12:36:45.185Z,100622.85
2018-04-18T12:39:13.712Z,100619.48
2018-04-18T12:41:41.709Z,100617.32
2018-04-18T12:44:14.644Z,100607.35
2018-04-18T12:46:46.947Z,100596.41
2018-04-18T12:49:17.607Z,100605.33
2018-04-18T12:51:47.051Z,100609.20
2018-04-18T12:54:15.867Z,100602.17
2018-04-18T12:56:44.031Z,100604.19
2018-04-18T12:59:12.354Z,100595.31
2018-04-18T13:01:40.131Z,100593.06
2018-04-18T13:04:08.110Z,100584.20
2018-04-18T13:06:36.460Z,100580.64
2018-04-18T13:09:04.226Z,100594.55
2018-04-18T13:11:31.867Z,100590.58
2018-04-18T13:13:59.624Z,100581.30
2018-04-18T13:16:27.434Z,100583.51
2018-04-18T13:18:55.771Z,100582.52
2018-04-18T13:21:23.349Z,100573.86
2018-04-18T13:23:51.378Z,100566.91
2018-04-18T13:26:18.954Z,100567.00
2018-04-18T13:28:46.505Z,100560.02
2018-04-18T13:31:14.039Z,100565.41
2018-04-18T13:33:41.621Z,100565.08
2018-04-18T13:36:09.439Z,100557.57
2018-04-18T13:38:41.093Z,100558.17
2018-04-18T13:41:09.595Z,100558.53
2018-04-18T13:43:37.146Z,100554.70
2018-04-18T13:46:04.695Z,100553.83
2018-04-18T13:48:32.379Z,100553.62
2018-04-18T13:50:59.905Z,100557.88
2018-04-18T13:53:27.485Z,100542.97
2018-04-18T13:55:55.157Z,100552.07
2018-04-18T13:58:22.891Z,100553.76
2018-04-18T14:00:50.438Z,100547.42
2018-04-18T14:03:17.991Z,100546.09
2018-04-18T14:05:45.516Z,100541.20
2018-04-18T14:08:13.687Z,100541.87
2018-04-18T14:10:41.730Z,100538.77
2018-04-18T14:13:09.394Z,100535.97
2018-04-18T14:15:36.924Z,100536.83
2018-04-18T14:18:04.481Z,100537.68
2018-04-18T14:20:33.124Z,100535.72
2018-04-18T14:23:00.734Z,100534.04
2018-04-18T14:25:28.534Z,100531.76
2018-04-18T14:27:56.086Z,100526.98
2018-04-18T14:30:23.743Z,100530.01
2018-04-18T14:32:51.949Z,100518.06
2018-04-18T14:35:19.573Z,100515.01
2018-04-18T14:37:47.247Z,100516.55
2018-04-18T14:40:14.749Z,100515.00
2018-04-18T14:42:42.378Z,100510.20
2018-04-18T14:45:11.629Z,100511.53
2018-04-18T14:47:39.198Z,100505.75
2018-04-18T14:50:09.897Z,100507.84
2018-04-18T14:52:37.709Z,100501.37
2018-04-18T14:55:06.110Z,100501.89
2018-04-18T14:57:33.670Z,100504.15
2018-04-18T15:00:01.215Z,100499.42
2018-04-18T15:02:28.876Z,100498.28
2018-04-18T15:04:56.447Z,100501.81
2018-04-18T15:07:23.970Z,100482.75
2018-04-18T15:09:51.521Z,100491.78
2018-04-18T15:12:19.046Z,100493.57
2018-04-18T15:14:47.426Z,100490.73
2018-04-18T15:17:15.479Z,100499.34
2018-04-18T15:19:44.032Z,100493.38
2018-04-18T15:22:11.604Z,100489.58
2018-04-18T15:24:40.201Z,100500.44
2018-04-18T15:27:07.805Z,100491.07
2018-04-18T15:29:35.370Z,100490.95
2018-04-18T15:32:02.893Z,100489.28
2018-04-18T15:34:32.422Z,100487.92
2018-04-18T15:37:00.105Z,100492.31
2018-04-18T15:39:28.383Z,100485.93
2018-04-18T15:41:55.906Z,100486.39
2018-04-18T15:44:23.455Z,100487.39
2018-04-18T15:46:51.104Z,100480.71
2018-04-18T15:49:18.762Z,100481.23
2018-04-18T15:51:46.845Z,100478.91
2018-04-18T15:54:14.418Z,100481.28
2018-04-18T15:56:42.193Z,100477.95
2018-04-18T15:59:09.820Z,100479.97
2018-04-18T16:01:37.376Z,100480.11
2018-04-18T16:04:05.881Z,100473.23
2018-04-18T16:06:33.523Z,100482.41
2018-04-18T16:09:01.108Z,100478.38
2018-04-18T16:11:32.777Z,100480.07
2018-04-18T16:14:00.689Z,100474.73
2018-04-18T16:16:28.257Z,100469.86
2018-04-18T16:18:55.818Z,100467.37
2018-04-18T16:21:23.341Z,100476.78
2018-04-18T16:23:50.893Z,100473.08
2018-04-18T16:26:18.423Z,100474.30
2018-04-18T16:28:45.997Z,100463.34
2018-04-18T16:31:13.522Z,100475.41
2018-04-18T16:33:41.077Z,100471.95
2018-04-18T16:36:08.605Z,100472.31
2018-04-18T16:38:36.173Z,100469.35
2018-04-18T16:41:03.734Z,100473.17
2018-04-18T16:43:31.313Z,100468.23
2018-04-18T16:45:58.887Z,100474.75
2018-04-18T16:48:26.533Z,100467.27
2018-04-18T16:50:54.869Z,100463.72
2018-04-18T16:53:22.475Z,100462.94
2018-04-18T16:55:50.021Z,100461.56
2018-04-18T16:58:20.837Z,100455.53
2018-04-18T17:00:48.600Z,100455.67
2018-04-18T17:03:20.453Z,100459.48
2018-04-18T17:05:49.790Z,100453.68
2018-04-18T17:08:17.862Z,100456.20
2018-04-18T17:10:46.785Z,100448.98
2018-04-18T17:13:15.319Z,100447.63
2018-04-18T17:15:44.771Z,100454.42
2018-04-18T17:18:14.144Z,100447.75
2018-04-18T17:20:45.403Z,100452.90
2018-04-18T17:23:13.196Z,100448.98
2018-04-18T17:25:44.843Z,100446.60
2018-04-18T17:28:13.900Z,100454.34
2018-04-18T17:30:43.464Z,100450.94
2018-04-18T17:33:12.655Z,100455.78
2018-04-18T17:35:40.369Z,100454.11
2018-04-18T17:38:09.260Z,100441.79
2018-04-18T17:40:37.537Z,100442.05
2018-04-18T17:43:06.736Z,100447.08
2018-04-18T17:45:34.511Z,100453.31
2018-04-18T17:48:06.248Z,100449.30
2018-04-18T17:50:34.247Z,100448.72
2018-04-18T17:53:02.093Z,100447.17
2018-04-18T17:55:30.982Z,100446.38
2018-04-18T17:57:59.473Z,100443.22
2018-04-18T18:00:29.086Z,100443.96
2018-04-18T18:02:57.609Z,100440.20
2018-04-18T18:05:26.188Z,100441.68
2018-04-18T18:07:53.740Z,100439.78
2018-04-18T18:10:23.560Z,100442.36
2018-04-18T18:12:51.994Z,100441.92
2018-04-18T18:15:19.753Z,100439.97
2018-04-18T18:17:48.140Z,100438.14
2018-04-18T18:20:16.894Z,100431.91
2018-04-18T18:22:45.301Z,100442.48
2018-04-18T18:25:13.796Z,100441.79
2018-04-18T18:27:41.510Z,100444.41
2018-04-18T18:30:09.114Z,100441.64
2018-04-18T18:32:40.154Z,100439.95
2018-04-18T18:35:09.110Z,100442.84
2018-04-18T18:37:37.864Z,100443.08
2018-04-18T18:40:07.493Z,100440.48
2018-04-18T18:42:35.015Z,100452.12
2018-04-18T18:45:04.392Z,100449.45
2018-04-18T18:47:31.923Z,100449.93
2018-04-18T18:49:59.777Z,100449.80
2018-04-18T18:52:27.994Z,100448.05
2018-04-18T18:54:56.481Z,100452.27
2018-04-18T18:57:24.033Z,100448.91
2018-04-18T18:59:51.584Z,100445.64
2018-04-18T19:02:19.153Z,100450.94
2018-04-18T19:04:46.816Z,100448.53
2018-04-18T19:07:14.361Z,100446.77
2018-04-18T19:09:41.895Z,100452.89
2018-04-18T19:12:09.522Z,100449.86
2018-04-18T19:14:37.053Z,100452.24
2018-04-18T19:17:04.629Z,100457.59
2018-04-18T19:19:32.255Z,100458.80
2018-04-18T19:21:59.922Z,100463.67
2018-04-18T19:24:27.708Z,100459.30
2018-04-18T19:26:55.284Z,100464.30
2018-04-18T19:29:23.056Z,100456.54
2018-04-18T19:31:52.939Z,100470.16
2018-04-18T19:34:20.490Z,100465.74
2018-04-18T19:36:48.447Z,100449.69
2018-04-18T19:39:16.197Z,100463.53
2018-04-18T19:41:43.775Z,100458.20
2018-04-18T19:44:11.302Z,100463.73
2018-04-18T19:46:38.901Z,100459.91
2018-04-18T19:49:06.429Z,100469.70
2018-04-18T19:51:33.984Z,100465.90
2018-04-18T19:54:01.535Z,100474.14
2018-04-18T19:56:29.086Z,100465.67
2018-04-18T19:58:56.708Z,100459.31
2018-04-18T20:01:25.145Z,100459.45
2018-04-18T20:03:53.056Z,100463.33
2018-04-18T20:06:20.717Z,100461.27
2018-04-18T20:08:48.458Z,100449.26
2018-04-18T20:11:16.026Z,100462.39
2018-04-18T20:13:43.554Z,100460.65
2018-04-18T20:16:11.263Z,100461.58
2018-04-18T20:18:39.934Z,100465.64
2018-04-18T20:21:07.486Z,100464.27
2018-04-18T20:23:35.011Z,100467.98
2018-04-18T20:26:02.631Z,100463.51
2018-04-18T20:28:30.186Z,100461.64
2018-04-18T20:30:57.718Z,100460.81
2018-04-18T20:33:25.520Z,100461.73
2018-04-18T20:35:53.073Z,100458.47
2018-04-18T20:38:20.626Z,100459.80
2018-04-18T20:40:48.598Z,100457.39
2018-04-18T20:43:16.266Z,100465.39
2018-04-18T20:45:43.838Z,100471.45
2018-04-18T20:48:11.415Z,100474.28
2018-04-18T20:50:38.942Z,100463.47
2018-04-18T20:53:06.907Z,100469.70
2018-04-18T20:55:34.451Z,100461.67
2018-04-18T20:58:02.049Z,100464.72
2018-04-18T21:00:29.694Z,100466.27
2018-04-18T21:02:57.246Z,100463.76
2018-04-18T21:05:24.798Z,100466.34
2018-04-18T21:07:52.376Z,100460.97
2018-04-18T21:10:19.877Z,100467.33
2018-04-18T21:12:47.433Z,100462.43
2018-04-18T21:17:41.812Z,100459.79
2018-04-18T21:20:09.414Z,100462.61
2018-04-18T21:22:36.961Z,100459.21
2018-04-18T21:25:04.513Z,100457.27
2018-04-18T21:27:32.098Z,100470.12
2018-04-18T21:29:59.649Z,100453.00
2018-04-18T21:32:27.224Z,100460.66
2018-04-18T21:34:54.753Z,100456.02
2018-04-18T21:37:22.303Z,100455.94
2018-04-18T21:39:49.831Z,100459.17
2018-04-18T21:42:17.409Z,100461.11
2018-04-18T21:44:44.945Z,100461.41
2018-04-18T21:47:14.489Z,100460.42
2018-04-18T21:49:42.418Z,100462.30
2018-04-18T21:52:10.616Z,100460.85
2018-04-18T21:54:38.674Z,100454.48
2018-04-18T21:57:06.199Z,100449.05
2018-04-18T21:59:33.748Z,100453.23
2018-04-18T22:02:01.552Z,100456.72
2018-04-18T22:04:29.156Z,100453.43
2018-04-18T22:06:57.072Z,100454.09
2018-04-18T22:09:24.665Z,100464.08
2018-04-18T22:11:52.667Z,100457.62
2018-04-18T22:14:20.855Z,100459.27
2018-04-18T22:16:49.933Z,100459.72
2018-04-18T22:19:17.811Z,100458.65
2018-04-18T22:21:46.320Z,100460.59
2018-04-18T22:24:14.422Z,100460.24
2018-04-18T22:26:42.531Z,100457.03
2018-04-18T22:29:10.174Z,100463.36
2018-04-18T22:31:38.298Z,100450.70
2018-04-18T22:34:06.487Z,100456.58
2018-04-18T22:36:34.134Z,100452.70
2018-04-18T22:39:01.732Z,100458.20
2018-04-18T22:41:29.257Z,100462.02
2018-04-18T22:43:56.836Z,100449.79
2018-04-18T22:46:24.371Z,100453.30
2018-04-18T22:48:52.042Z,100449.86
2018-04-18T22:51:20.106Z,100441.34
2018-04-18T22:53:47.675Z,100448.98
2018-04-18T22:56:19.470Z,100457.94
2018-04-18T22:58:48.877Z,100449.28
2018-04-18T23:01:16.731Z,100459.19
2018-04-18T23:03:44.484Z,100454.90
2018-04-18T23:06:13.053Z,100455.38
2018-04-18T23:08:41.111Z,100450.69
2018-04-18T23:11:08.795Z,100453.87
2018-04-18T23:13:36.911Z,100451.53
2018-04-18T23:16:08.237Z,100453.09
2018-04-18T23:18:38.217Z,100449.08
2018-04-18T23:21:06.781Z,100448.55
2018-04-18T23:23:37.803Z,100452.98
2018-04-18T23:26:05.911Z,100454.19
2018-04-18T23:28:33.706Z,100451.30
2018-04-18T23:31:01.657Z,100443.23
2018-04-18T23:33:29.610Z,100448.98
2018-04-18T23:35:57.280Z,100446.81
2018-04-18T23:38:26.483Z,100450.69
2018-04-18T23:40:55.740Z,100451.08
2018-04-18T23:43:23.265Z,100443.93
2018-04-18T23:45:50.840Z,100450.33
2018-04-18T23:48:18.396Z,100444.17
2018-04-18T23:50:45.975Z,100446.02
2018-04-18T23:53:13.529Z,100444.30
2018-04-18T23:55:41.086Z,100443.22
2018-04-18T23:58:08.606Z,100451.21
